Time;durP1;ratioP1;P1;durP2;ratioP2;P2;SDS_P1;SDS_P2;PMS_P1;PMS_P2;Temp;Humidity;BMP_temperature;BMP_pressure;BME280_temperature;BME280_humidity;BME280_pressure;Samples;Min_cycle;Max_cycle;Signal;HPM_P1;HPM_P2
2022/11/14 00:02:25;;;;;;;148.18;81.50;;;;;;;5.83;100.00;102399.59;5026808;28;20132;-84
2022/11/14 00:04:52;;;;;;;134.35;76.05;;;;;;;5.91;100.00;102400.59;5032148;28;20049;-85
2022/11/14 00:07:19;;;;;;;150.35;73.00;;;;;;;5.90;100.00;102398.09;5025472;28;20533;-85
2022/11/14 00:09:46;;;;;;;152.70;76.25;;;;;;;5.78;100.00;102402.66;5027245;28;20103;-85
2022/11/14 00:12:13;;;;;;;170.02;73.53;;;;;;;5.73;100.00;102399.56;5022616;28;20045;-84
2022/11/14 00:14:40;;;;;;;155.05;70.80;;;;;;;5.56;100.00;102400.19;5024198;28;20119;-85
2022/11/14 00:17:09;;;;;;;138.48;68.72;;;;;;;5.61;100.00;102405.91;5021831;28;20050;-85
2022/11/14 00:19:36;;;;;;;146.52;72.97;;;;;;;5.48;100.00;102406.97;5026793;28;20049;-85
2022/11/14 00:22:02;;;;;;;178.68;74.57;;;;;;;5.36;100.00;102409.81;5025417;28;20123;-84
2022/11/14 00:24:29;;;;;;;118.40;71.85;;;;;;;5.50;100.00;102404.19;5028337;28;20448;-84
2022/11/14 00:26:57;;;;;;;152.18;71.80;;;;;;;5.65;100.00;102408.13;5030667;28;20107;-84
2022/11/14 00:29:23;;;;;;;135.93;70.13;;;;;;;5.45;100.00;102407.22;5031654;28;20050;-84
2022/11/14 00:31:50;;;;;;;134.88;77.28;;;;;;;5.51;100.00;102404.06;5018043;28;20462;-84
2022/11/14 00:34:18;;;;;;;136.30;81.18;;;;;;;5.58;100.00;102406.16;5031520;28;20045;-84
2022/11/14 00:36:45;;;;;;;132.85;75.10;;;;;;;5.61;100.00;102400.63;5028940;28;20049;-83
2022/11/14 00:39:19;;;;;;;154.40;77.20;;;;;;;5.51;100.00;102400.59;5036715;28;20038;-83
2022/11/14 00:41:46;;;;;;;158.77;84.45;;;;;;;5.38;100.00;102397.31;5051380;28;20072;-84
2022/11/14 00:44:13;;;;;;;131.95;77.78;;;;;;;5.43;100.00;102397.78;5028641;28;20049;-85
2022/11/14 00:46:39;;;;;;;205.15;77.63;;;;;;;5.40;100.00;102398.88;5028859;28;20049;-85
2022/11/14 00:49:06;;;;;;;140.27;83.05;;;;;;;5.44;100.00;102396.78;5026519;28;20041;-84
2022/11/14 00:51:35;;;;;;;148.50;76.38;;;;;;;5.36;100.00;102396.63;5025129;28;20064;-85
2022/11/14 00:54:02;;;;;;;111.95;72.90;;;;;;;5.44;100.00;102391.53;5026072;28;20119;-85
2022/11/14 00:56:28;;;;;;;144.50;77.43;;;;;;;5.44;100.00;102400.25;5034358;28;20056;-85
2022/11/14 00:58:55;;;;;;;166.98;84.70;;;;;;;5.42;100.00;102398.75;5025153;28;20124;-85
2022/11/14 01:01:22;;;;;;;165.80;75.20;;;;;;;5.35;100.00;102390.50;5135655;22;20126;-85
2022/11/14 01:03:49;;;;;;;126.60;63.67;;;;;;;5.32;100.00;102396.03;5043617;28;20044;-85
2022/11/14 01:06:16;;;;;;;125.55;73.78;;;;;;;5.29;100.00;102393.66;5045549;28;20049;-85
2022/11/14 01:08:45;;;;;;;112.60;71.93;;;;;;;5.40;100.00;102392.75;5041888;28;20053;-85
2022/11/14 01:11:15;;;;;;;115.65;67.50;;;;;;;5.38;100.00;102392.06;5047456;28;20048;-86
2022/11/14 01:13:42;;;;;;;95.00;60.20;;;;;;;5.30;100.00;102387.44;5041654;28;20432;-85
2022/11/14 01:16:10;;;;;;;130.55;73.10;;;;;;;5.37;100.00;102385.94;5043188;28;20053;-85
2022/11/14 01:18:38;;;;;;;115.55;70.10;;;;;;;5.43;100.00;102395.97;5045465;28;20044;-86
2022/11/14 01:21:06;;;;;;;105.88;73.43;;;;;;;5.45;100.00;102385.31;5049584;28;20087;-85
2022/11/14 01:23:33;;;;;;;110.50;67.85;;;;;;;5.26;100.00;102373.72;5052513;28;20436;-85
2022/11/14 01:26:04;;;;;;;124.43;65.60;;;;;;;5.32;100.00;102390.78;5042708;28;20114;-86
2022/11/14 01:28:32;;;;;;;127.53;63.97;;;;;;;5.21;100.00;102386.44;5044029;28;20053;-85
2022/11/14 01:31:08;;;;;;;104.80;64.78;;;;;;;5.37;100.00;102385.13;5042291;28;20056;-85
2022/11/14 01:33:35;;;;;;;122.55;62.25;;;;;;;5.37;100.00;102379.84;5042439;28;20050;-84
2022/11/14 01:36:16;;;;;;;94.03;53.83;;;;;;;5.36;100.00;102372.91;5041106;28;20071;-83
2022/11/14 01:38:44;;;;;;;89.40;54.33;;;;;;;5.26;100.00;102373.72;5058149;28;20049;-83
2022/11/14 01:41:14;;;;;;;83.00;49.78;;;;;;;5.19;100.00;102376.97;5058747;28;20036;-83
2022/11/14 01:43:44;;;;;;;95.43;49.63;;;;;;;5.20;100.00;102376.00;5058181;28;20033;-83
2022/11/14 01:46:14;;;;;;;88.13;49.97;;;;;;;5.26;100.00;102380.75;5059321;28;20033;-83
2022/11/14 01:48:45;;;;;;;99.80;53.80;;;;;;;5.24;100.00;102372.16;5060142;28;20045;-83
2022/11/14 01:51:19;;;;;;;87.82;50.92;;;;;;;5.20;100.00;102368.94;5052193;28;20056;-85
2022/11/14 01:53:50;;;;;;;98.45;59.45;;;;;;;5.41;100.00;102368.06;5042340;28;20062;-85
2022/11/14 01:56:22;;;;;;;97.63;57.78;;;;;;;5.46;100.00;102366.72;5033538;28;20049;-84
2022/11/14 01:58:58;;;;;;;101.80;56.03;;;;;;;5.40;100.00;102364.59;5045592;28;20044;-84
2022/11/14 02:01:25;;;;;;;89.90;53.85;;;;;;;5.47;100.00;102367.53;5044749;28;20056;-83
2022/11/14 02:03:54;;;;;;;99.30;58.30;;;;;;;5.59;100.00;102357.75;5040752;28;20147;-83
2022/11/14 02:06:23;;;;;;;92.57;58.67;;;;;;;5.51;100.00;102366.34;5039106;28;20481;-84
2022/11/14 02:08:52;;;;;;;80.65;56.03;;;;;;;5.70;100.00;102361.13;5049015;28;20052;-84
2022/11/14 02:11:21;;;;;;;100.25;58.05;;;;;;;5.65;100.00;102351.94;5050433;28;20053;-84
2022/11/14 02:13:48;;;;;;;109.13;61.25;;;;;;;5.45;100.00;102362.41;5041988;28;20056;-84
2022/11/14 02:16:15;;;;;;;115.88;58.22;;;;;;;5.49;100.00;102349.81;5039185;28;20049;-86
2022/11/14 02:18:42;;;;;;;121.00;61.15;;;;;;;5.57;100.00;102357.91;5047051;28;20453;-85
2022/11/14 02:21:10;;;;;;;114.82;60.60;;;;;;;5.58;100.00;102358.72;5049890;28;20087;-86
2022/11/14 02:23:37;;;;;;;119.30;68.63;;;;;;;5.42;100.00;102359.22;5050578;28;20053;-85
2022/11/14 02:26:04;;;;;;;119.88;68.97;;;;;;;5.44;100.00;102363.38;5049101;28;20480;-85
2022/11/14 02:28:32;;;;;;;106.07;72.28;;;;;;;5.53;100.00;102361.75;5062331;28;20034;-84
2022/11/14 02:31:00;;;;;;;110.60;68.20;;;;;;;5.33;100.00;102363.47;5061871;28;20054;-84
2022/11/14 02:33:27;;;;;;;129.23;66.72;;;;;;;5.32;100.00;102353.06;5076751;28;20041;-82
2022/11/14 02:35:55;;;;;;;101.55;62.47;;;;;;;5.42;100.00;102361.84;5077055;28;20534;-83
2022/11/14 02:38:23;;;;;;;122.70;72.50;;;;;;;5.32;100.00;102363.59;5055475;28;20452;-83
2022/11/14 02:40:50;;;;;;;133.85;78.55;;;;;;;5.45;100.00;102354.50;5045865;28;20107;-83
2022/11/14 02:43:16;;;;;;;122.35;76.70;;;;;;;5.48;100.00;102348.97;5039838;28;20052;-84
2022/11/14 02:45:43;;;;;;;94.57;65.63;;;;;;;5.43;100.00;102348.53;5049475;28;20053;-84
2022/11/14 02:48:11;;;;;;;99.35;59.20;;;;;;;5.50;100.00;102354.94;5044659;28;20092;-84
2022/11/14 02:50:38;;;;;;;100.40;61.22;;;;;;;5.47;100.00;102352.56;5048440;28;20075;-86
2022/11/14 02:53:04;;;;;;;100.80;61.22;;;;;;;5.57;100.00;102346.50;5037472;28;20050;-85
2022/11/14 02:55:32;;;;;;;92.40;61.25;;;;;;;5.76;100.00;102353.66;5041151;28;20115;-85
2022/11/14 02:57:59;;;;;;;89.70;57.13;;;;;;;5.72;100.00;102345.19;5039051;28;20045;-84
2022/11/14 03:00:35;;;;;;;89.97;58.35;;;;;;;5.67;100.00;102347.38;5047023;28;20053;-83
2022/11/14 03:03:08;;;;;;;87.45;56.42;;;;;;;5.62;100.00;102339.84;5030538;28;20049;-84
2022/11/14 03:05:36;;;;;;;101.78;63.45;;;;;;;5.70;100.00;102347.09;5036896;28;20143;-85
2022/11/14 03:08:12;;;;;;;115.15;67.93;;;;;;;5.80;100.00;102344.50;5027936;28;20132;-85
2022/11/14 03:10:42;;;;;;;113.95;81.60;;;;;;;5.83;100.00;102334.50;5040707;28;20042;-84
2022/11/14 03:13:15;;;;;;;190.13;108.35;;;;;;;5.77;100.00;102345.59;5059749;28;20040;-83
2022/11/14 03:15:43;;;;;;;162.30;103.65;;;;;;;5.86;100.00;102347.41;5058205;28;20060;-83
2022/11/14 03:18:21;;;;;;;140.07;91.18;;;;;;;5.82;100.00;102348.66;5054075;28;20050;-83
2022/11/14 03:20:48;;;;;;;121.57;78.80;;;;;;;5.77;100.00;102350.88;5030165;28;20453;-86
2022/11/14 03:23:15;;;;;;;140.52;78.20;;;;;;;5.71;100.00;102357.50;5026332;28;20077;-85
2022/11/14 03:25:43;;;;;;;123.78;75.57;;;;;;;5.76;100.00;102354.47;5026263;28;20567;-85
2022/11/14 03:28:09;;;;;;;165.10;105.10;;;;;;;5.81;100.00;102347.00;5029601;28;20528;-84
2022/11/14 03:30:36;;;;;;;154.30;108.35;;;;;;;6.05;100.00;102353.72;5019432;28;20045;-83
2022/11/14 03:33:03;;;;;;;156.13;104.82;;;;;;;5.95;100.00;102348.44;5028442;28;20053;-83
2022/11/14 03:35:32;;;;;;;157.55;105.68;;;;;;;5.95;100.00;102340.53;5036850;28;20030;-84
2022/11/14 03:38:01;;;;;;;165.75;96.20;;;;;;;6.08;100.00;102346.41;5022158;28;20065;-87
2022/11/14 03:40:28;;;;;;;137.18;93.47;;;;;;;5.83;100.00;102341.59;5040841;28;20483;-84
2022/11/14 03:42:57;;;;;;;150.20;95.93;;;;;;;6.10;100.00;102349.72;5018952;28;20115;-84
2022/11/14 03:45:23;;;;;;;147.20;98.32;;;;;;;6.17;100.00;102353.50;5023664;28;20046;-85
2022/11/14 03:47:54;;;;;;;146.65;86.72;;;;;;;5.96;100.00;102344.81;5033684;28;20038;-82
2022/11/14 03:50:21;;;;;;;144.82;87.78;;;;;;;5.87;100.00;102354.38;5043917;28;20057;-84
2022/11/14 03:52:49;;;;;;;136.25;77.70;;;;;;;5.91;100.00;102339.94;5028189;28;20083;-85
2022/11/14 03:55:16;;;;;;;115.28;65.93;;;;;;;6.04;100.00;102345.00;5029410;28;20493;-85
2022/11/14 03:57:45;;;;;;;112.32;64.75;;;;;;;5.96;100.00;102339.56;5034572;28;20046;-83
2022/11/14 04:00:15;;;;;;;109.30;64.15;;;;;;;6.04;100.00;102336.25;5039064;28;20053;-82
2022/11/14 04:02:42;;;;;;;161.77;100.57;;;;;;;5.99;100.00;102343.72;5068586;28;20440;-83
2022/11/14 04:05:09;;;;;;;142.40;84.72;;;;;;;5.97;100.00;102339.44;5048931;28;20056;-84
2022/11/14 04:07:36;;;;;;;133.18;77.53;;;;;;;6.02;100.00;102341.69;5045981;28;20045;-84
2022/11/14 04:10:03;;;;;;;146.38;75.97;;;;;;;6.14;100.00;102348.50;5041110;28;20045;-85
2022/11/14 04:12:30;;;;;;;118.82;64.75;;;;;;;6.17;100.00;102336.81;5036758;28;20045;-86
2022/11/14 04:14:57;;;;;;;143.80;74.03;;;;;;;6.18;100.00;102336.69;5045933;28;20391;-84
2022/11/14 04:17:25;;;;;;;135.80;84.35;;;;;;;6.15;100.00;102336.13;5048688;28;20523;-85
2022/11/14 04:19:52;;;;;;;142.73;85.93;;;;;;;6.05;100.00;102333.50;5048243;28;20045;-85
2022/11/14 04:22:19;;;;;;;129.20;76.68;;;;;;;6.11;100.00;102332.09;5048406;28;20516;-85
2022/11/14 04:24:45;;;;;;;139.77;94.45;;;;;;;6.11;100.00;102335.59;5037868;28;20061;-85
2022/11/14 04:27:12;;;;;;;161.00;96.10;;;;;;;6.28;100.00;102334.06;5053661;28;20390;-85
2022/11/14 04:29:39;;;;;;;155.95;89.00;;;;;;;6.25;100.00;102341.41;5046100;28;20582;-85
2022/11/14 04:32:06;;;;;;;152.77;91.90;;;;;;;6.27;100.00;102347.41;5046083;28;20051;-86
2022/11/14 04:34:34;;;;;;;195.02;93.63;;;;;;;6.27;100.00;102344.75;5046471;28;20045;-86
2022/11/14 04:37:01;;;;;;;274.50;89.18;;;;;;;6.18;100.00;102347.25;5044309;28;20515;-85
2022/11/14 04:39:27;;;;;;;139.25;81.50;;;;;;;6.32;100.00;102347.78;5042331;28;20045;-85
2022/11/14 04:41:54;;;;;;;170.43;86.45;;;;;;;6.41;100.00;102353.09;5051371;28;20114;-85
2022/11/14 04:44:21;;;;;;;191.98;86.95;;;;;;;6.27;100.00;102347.41;5053078;28;20071;-84
2022/11/14 04:46:54;;;;;;;254.02;84.93;;;;;;;6.29;100.00;102354.19;5044312;28;20056;-84
2022/11/14 04:49:21;;;;;;;135.45;82.15;;;;;;;6.40;100.00;102353.22;5063587;28;20032;-83
2022/11/14 04:52:09;;;;;;;152.35;80.05;;;;;;;6.53;100.00;102359.06;5048355;28;20045;-83
2022/11/14 04:54:36;;;;;;;167.60;83.53;;;;;;;6.53;100.00;102359.06;5069232;28;20049;-84
2022/11/14 04:57:08;;;;;;;139.35;73.10;;;;;;;6.56;100.00;102366.69;5078219;28;20108;-83
2022/11/14 04:59:35;;;;;;;134.23;70.13;;;;;;;6.58;100.00;102358.66;5061769;28;20428;-83
2022/11/14 05:02:02;;;;;;;139.93;72.65;;;;;;;6.58;100.00;102364.75;5047112;28;20053;-83
2022/11/14 05:04:29;;;;;;;292.08;76.20;;;;;;;6.57;100.00;102370.19;5042828;28;20056;-85
2022/11/14 05:06:56;;;;;;;147.65;67.07;;;;;;;6.53;100.00;102363.50;5048193;28;20115;-86
2022/11/14 05:09:24;;;;;;;160.45;84.50;;;;;;;6.51;100.00;102371.56;5042444;28;20452;-85
2022/11/14 05:11:51;;;;;;;131.88;87.63;;;;;;;6.48;100.00;102373.66;5050616;28;20546;-85
2022/11/14 05:14:18;;;;;;;161.80;85.00;;;;;;;6.36;100.00;102373.78;5044978;28;20058;-86
2022/11/14 05:16:46;;;;;;;115.93;64.55;;;;;;;6.49;100.00;102378.78;5046726;28;20064;-86
2022/11/14 05:19:13;;;;;;;156.70;69.18;;;;;;;6.32;100.00;102376.81;5042240;28;20105;-86
2022/11/14 05:21:40;;;;;;;118.50;64.88;;;;;;;6.47;100.00;102378.09;5047401;28;20467;-85
2022/11/14 05:24:07;;;;;;;123.32;64.50;;;;;;;6.41;100.00;102379.50;5043435;28;20045;-86
2022/11/14 05:26:35;;;;;;;127.82;66.82;;;;;;;6.48;100.00;102386.88;5040889;28;20049;-86
2022/11/14 05:29:02;;;;;;;115.55;70.40;;;;;;;6.46;100.00;102378.25;5042667;28;20041;-85
2022/11/14 05:31:29;;;;;;;115.13;68.20;;;;;;;6.73;100.00;102385.47;5043126;28;20118;-85
2022/11/14 05:33:55;;;;;;;116.97;65.32;;;;;;;6.53;100.00;102387.25;5042006;28;20116;-85
2022/11/14 05:36:22;;;;;;;131.30;73.18;;;;;;;6.43;100.00;102384.63;5042419;28;20450;-85
2022/11/14 05:38:49;;;;;;;125.15;65.75;;;;;;;6.49;100.00;102383.25;5043635;28;20472;-85
2022/11/14 05:41:18;;;;;;;135.23;73.30;;;;;;;6.52;100.00;102397.00;5045085;28;20049;-84
2022/11/14 05:43:47;;;;;;;117.05;64.32;;;;;;;6.70;100.00;102391.03;5048904;28;20045;-85
2022/11/14 05:46:15;;;;;;;143.05;66.38;;;;;;;6.59;100.00;102398.09;5042821;28;20053;-86
2022/11/14 05:48:42;;;;;;;142.93;72.72;;;;;;;6.50;100.00;102398.94;5044814;28;20048;-85
2022/11/14 05:51:11;;;;;;;157.63;71.82;;;;;;;6.55;100.00;102401.16;5041046;28;20097;-86
2022/11/14 05:53:38;;;;;;;151.85;77.68;;;;;;;6.54;100.00;102402.97;5041485;28;20374;-85
2022/11/14 05:56:07;;;;;;;152.70;75.93;;;;;;;6.49;100.00;102404.34;5042121;28;20524;-86
2022/11/14 05:58:35;;;;;;;161.27;79.75;;;;;;;6.74;100.00;102408.25;5038561;28;20049;-85
2022/11/14 06:01:05;;;;;;;162.35;79.05;;;;;;;6.90;100.00;102411.19;5039438;28;20057;-84
2022/11/14 06:03:33;;;;;;;174.43;77.43;;;;;;;6.86;100.00;102415.06;5041276;28;20049;-85
2022/11/14 06:27:52;;;;;;;212.00;163.07;;;;;;;6.77;100.00;102418.53;6215054;23;20044;-84
2022/11/14 06:30:19;;;;;;;203.13;147.80;;;;;;;6.80;100.00;102416.44;6216578;23;20028;-88
2022/11/14 06:32:57;;;;;;;184.82;135.50;;;;;;;6.75;100.00;102426.63;6216387;23;20052;-87
2022/11/14 06:35:24;;;;;;;168.90;136.32;;;;;;;6.72;100.00;102432.16;6216222;23;20024;-85
2022/11/14 06:37:51;;;;;;;212.27;124.80;;;;;;;6.51;100.00;102424.38;6215870;23;20025;-86
2022/11/14 06:40:20;;;;;;;185.70;136.07;;;;;;;6.65;100.00;102421.31;6218163;23;20025;-85
2022/11/14 06:42:55;;;;;;;165.98;137.02;;;;;;;6.68;100.00;102424.66;6218108;23;20021;-85
2022/11/14 06:45:22;;;;;;;172.90;139.85;;;;;;;6.80;100.00;102423.53;6197618;23;20431;-87
2022/11/14 06:47:48;;;;;;;172.48;134.68;;;;;;;7.08;100.00;102422.69;6193805;23;20029;-87
2022/11/14 06:50:15;;;;;;;161.90;121.53;;;;;;;6.96;100.00;102429.09;6194064;23;20084;-87
2022/11/14 06:52:42;;;;;;;182.70;158.27;;;;;;;6.82;100.00;102426.88;6194059;23;20434;-87
2022/11/14 06:55:09;;;;;;;194.80;143.30;;;;;;;6.95;100.00;102430.06;6194474;23;20445;-88
2022/11/14 06:57:36;;;;;;;163.50;131.20;;;;;;;6.97;100.00;102420.19;6194495;23;20029;-88
2022/11/14 07:00:05;;;;;;;166.70;133.32;;;;;;;7.06;100.00;102419.34;6194219;23;20079;-88
2022/11/14 07:02:32;;;;;;;162.70;138.55;;;;;;;7.04;100.00;102423.09;6194159;23;20036;-89
2022/11/14 07:04:58;;;;;;;170.10;132.80;;;;;;;7.17;100.00;102417.50;6194480;23;20036;-88
2022/11/14 07:07:25;;;;;;;168.85;145.25;;;;;;;7.36;100.00;102414.03;6194581;23;20095;-88
2022/11/14 07:09:53;;;;;;;134.98;113.00;;;;;;;7.20;100.00;102411.94;6194401;23;20099;-88
2022/11/14 07:12:19;;;;;;;141.88;111.50;;;;;;;7.18;100.00;102413.91;6194050;23;20025;-88
2022/11/14 07:14:46;;;;;;;132.57;104.35;;;;;;;7.06;100.00;102405.31;6193448;23;20087;-88
2022/11/14 07:17:14;;;;;;;125.72;91.68;;;;;;;7.32;100.00;102409.03;6193333;23;20032;-88
2022/11/14 07:19:51;;;;;;;123.07;96.53;;;;;;;7.42;100.00;102411.63;6212689;23;20064;-87
2022/11/14 07:22:20;;;;;;;133.15;118.57;;;;;;;7.47;100.00;102403.25;6217861;23;20024;-87
2022/11/14 07:24:47;;;;;;;136.13;121.30;;;;;;;7.39;100.00;102405.81;6214710;23;20027;-87
2022/11/14 07:27:14;;;;;;;134.20;115.78;;;;;;;7.37;100.00;102400.66;6188869;23;20029;-88
2022/11/14 07:29:40;;;;;;;146.40;124.22;;;;;;;7.47;100.00;102406.72;6182175;23;20083;-88
2022/11/14 07:32:15;;;;;;;134.40;119.85;;;;;;;7.60;100.00;102401.13;6183938;23;20025;-88
2022/11/14 07:34:42;;;;;;;134.90;120.63;;;;;;;7.44;100.00;102401.72;6186619;23;20028;-87
2022/11/14 07:37:10;;;;;;;119.13;106.65;;;;;;;7.55;100.00;102400.72;6185062;23;20083;-87
2022/11/14 07:39:37;;;;;;;124.68;111.47;;;;;;;7.47;100.00;102403.25;6186671;23;20091;-87
2022/11/14 07:42:05;;;;;;;122.38;109.60;;;;;;;7.51;100.00;102410.75;6181721;23;20469;-87
2022/11/14 07:44:32;;;;;;;129.05;116.75;;;;;;;7.31;100.00;102404.69;6185621;23;20037;-88
2022/11/14 07:46:58;;;;;;;111.35;100.72;;;;;;;7.35;100.00;102402.59;6186047;23;20025;-88
2022/11/14 07:49:26;;;;;;;113.15;102.07;;;;;;;7.43;100.00;102401.88;6186770;23;20434;-89
2022/11/14 07:51:53;;;;;;;115.97;105.22;;;;;;;7.51;100.00;102391.44;6186024;23;20017;-88
2022/11/14 07:54:20;;;;;;;119.90;108.75;;;;;;;7.40;100.00;102387.13;6186298;23;20032;-87
2022/11/14 07:56:47;;;;;;;118.53;107.25;;;;;;;7.46;100.00;102398.94;6186563;23;20035;-88
2022/11/14 07:59:13;;;;;;;113.28;102.50;;;;;;;7.48;100.00;102399.66;6186929;23;20025;-87
2022/11/14 08:01:40;;;;;;;112.70;102.00;;;;;;;7.60;100.00;102401.13;6186043;23;20385;-87
2022/11/14 08:04:07;;;;;;;113.00;102.15;;;;;;;7.52;100.00;102398.38;6187065;23;20489;-88
2022/11/14 08:06:35;;;;;;;114.82;103.93;;;;;;;7.53;100.00;102398.25;6186539;23;20080;-88
2022/11/14 08:09:02;;;;;;;122.40;111.15;;;;;;;7.48;100.00;102408.41;6186417;23;20449;-88
2022/11/14 08:14:14;;;;;;;118.28;107.22;;;;;;;7.36;100.00;102416.66;6186353;23;20091;-88
2022/11/14 08:16:41;;;;;;;112.25;101.18;;;;;;;7.34;100.00;102407.03;6185753;23;20024;-89
2022/11/14 08:19:08;;;;;;;109.50;97.88;;;;;;;7.62;100.00;102417.66;6186434;23;20024;-88
2022/11/14 08:21:36;;;;;;;123.70;112.22;;;;;;;7.61;100.00;102415.19;6186108;23;20091;-88
2022/11/14 08:24:03;;;;;;;122.95;111.60;;;;;;;7.49;100.00;102411.88;6185942;23;20401;-87
2022/11/14 08:26:29;;;;;;;122.93;111.03;;;;;;;7.57;100.00;102414.66;6199146;23;20079;-87
2022/11/14 08:28:56;;;;;;;119.55;107.68;;;;;;;7.42;100.00;102422.22;6186414;23;20036;-87
2022/11/14 08:31:23;;;;;;;112.38;100.90;;;;;;;7.62;100.00;102420.31;6185225;23;20087;-87
2022/11/14 08:33:51;;;;;;;119.68;107.60;;;;;;;7.37;100.00;102411.22;6185698;23;20037;-87
2022/11/14 08:36:18;;;;;;;112.53;101.20;;;;;;;7.47;100.00;102411.19;6185322;23;20021;-87
2022/11/14 08:38:46;;;;;;;105.47;94.90;;;;;;;7.51;100.00;102410.75;6185473;23;20025;-88
2022/11/14 08:41:13;;;;;;;117.97;107.60;;;;;;;7.56;100.00;102411.19;6185080;23;20025;-88
2022/11/14 08:43:40;;;;;;;108.68;98.68;;;;;;;7.34;100.00;102408.88;6186156;23;20480;-88
2022/11/14 08:46:07;;;;;;;106.00;96.57;;;;;;;7.37;100.00;102405.94;6185705;23;20029;-87
2022/11/14 08:48:33;;;;;;;100.22;90.68;;;;;;;7.46;100.00;102405.06;6189411;23;20025;-89
2022/11/14 08:51:03;;;;;;;100.45;91.13;;;;;;;7.78;100.00;102398.56;6185436;23;20025;-88
2022/11/14 08:53:29;;;;;;;96.78;87.70;;;;;;;7.39;100.00;102397.88;6186099;23;20017;-86
2022/11/14 08:56:11;;;;;;;111.28;101.78;;;;;;;7.52;100.00;102391.28;6202139;23;20009;-87
2022/11/14 08:58:47;;;;;;;109.95;100.22;;;;;;;7.92;100.00;102389.28;6212535;23;20025;-87
2022/11/14 09:01:14;;;;;;;111.68;101.97;;;;;;;7.87;100.00;102391.56;6211471;23;20009;-87
2022/11/14 09:03:49;;;;;;;111.50;101.85;;;;;;;7.95;100.00;102376.59;6211242;23;20021;-87
2022/11/14 09:06:24;;;;;;;96.90;87.75;;;;;;;7.81;100.00;102377.09;6211395;23;20028;-87
2022/11/14 09:08:59;;;;;;;99.88;90.82;;;;;;;8.00;100.00;102376.16;6211959;23;20068;-88
2022/11/14 09:11:35;;;;;;;94.53;85.47;;;;;;;7.98;100.00;102376.28;6211548;23;20085;-87
2022/11/14 09:14:05;;;;;;;89.22;80.93;;;;;;;7.99;100.00;102372.69;6212100;23;20029;-85
2022/11/14 09:16:32;;;;;;;93.22;84.88;;;;;;;8.00;100.00;102373.50;6212182;23;20020;-87
2022/11/14 09:19:00;;;;;;;92.72;84.22;;;;;;;8.23;100.00;102376.56;6210643;23;20036;-87
2022/11/14 09:21:28;;;;;;;94.70;86.07;;;;;;;8.02;100.00;102372.38;6211366;23;20021;-87
2022/11/14 09:23:54;;;;;;;92.32;83.43;;;;;;;8.17;100.00;102369.19;6208284;23;20028;-87
2022/11/14 09:26:21;;;;;;;100.68;91.60;;;;;;;8.35;100.00;102363.91;6179326;23;20029;-89
2022/11/14 09:28:49;;;;;;;107.32;97.78;;;;;;;8.47;100.00;102365.38;6176684;23;20036;-88
2022/11/14 09:31:16;;;;;;;91.97;83.13;;;;;;;8.29;100.00;102353.94;6181073;23;20020;-89
2022/11/14 09:33:45;;;;;;;96.45;86.95;;;;;;;8.57;100.00;102346.78;6185899;23;20095;-88
2022/11/14 09:36:20;;;;;;;94.72;85.40;;;;;;;8.58;100.00;102348.44;6186321;23;20378;-88
2022/11/14 09:38:55;;;;;;;95.38;86.03;;;;;;;8.73;100.00;102338.97;6186057;23;20315;-88
2022/11/14 09:41:25;;;;;;;89.88;81.28;;;;;;;8.64;100.00;102324.81;6185549;23;20513;-89
2022/11/14 09:44:08;;;;;;;86.40;77.82;;;;;;;8.48;100.00;102330.81;6182459;23;20028;-88
2022/11/14 09:46:40;;;;;;;92.45;84.15;;;;;;;8.64;100.00;102322.19;6185221;23;20040;-88
2022/11/14 09:49:15;;;;;;;92.05;83.45;;;;;;;8.75;100.00;102321.13;6185212;23;20091;-88
2022/11/14 09:51:51;;;;;;;93.35;84.50;;;;;;;9.01;100.00;102325.56;6185847;23;20021;-88
2022/11/14 09:54:22;;;;;;;97.95;89.10;;;;;;;8.97;100.00;102319.75;6184922;23;20024;-88
2022/11/14 09:56:50;;;;;;;87.85;79.68;;;;;;;8.80;100.00;102323.28;6185849;23;20032;-89
2022/11/14 09:59:18;;;;;;;92.05;83.45;;;;;;;8.79;100.00;102313.69;6183958;23;20091;-87
2022/11/14 10:01:49;;;;;;;87.25;79.00;;;;;;;8.58;100.00;102312.19;6180493;23;20021;-87
2022/11/14 10:04:29;;;;;;;91.22;82.65;;;;;;;8.92;100.00;102314.09;6178555;23;20098;-87
2022/11/14 10:07:09;;;;;;;97.22;88.25;;;;;;;9.25;100.00;102312.44;6182194;23;20028;-88
2022/11/14 10:09:54;;;;;;;95.68;86.78;;;;;;;9.29;100.00;102319.13;6186035;23;20083;-89
2022/11/14 10:12:25;;;;;;;91.50;82.50;;;;;;;9.14;100.00;102300.31;6185012;23;20087;-86
2022/11/14 10:15:14;;;;;;;90.30;81.68;;;;;;;9.24;100.00;102320.59;6185314;23;20033;-87
2022/11/14 10:17:57;;;;;;;97.78;88.10;;;;;;;9.31;100.00;102305.69;6185039;23;20493;-88
2022/11/14 10:20:31;;;;;;;97.15;88.20;;;;;;;9.25;100.00;102304.50;6185265;23;20025;-87
2022/11/14 10:23:15;;;;;;;108.20;97.50;;;;;;;9.24;100.00;102297.53;6185094;23;20021;-87
2022/11/14 10:25:52;;;;;;;95.40;86.75;;;;;;;9.14;100.00;102294.19;6184751;23;20029;-87
2022/11/14 10:28:38;;;;;;;97.78;88.68;;;;;;;9.43;100.00;102280.53;6185390;23;20021;-87
2022/11/14 10:31:16;;;;;;;100.03;90.97;;;;;;;9.37;100.00;102286.50;6184339;23;20033;-87
2022/11/14 10:33:52;;;;;;;100.57;91.03;;;;;;;9.50;100.00;102283.38;6184227;23;20020;-87
2022/11/14 10:36:28;;;;;;;87.70;79.00;;;;;;;9.97;100.00;102282.84;6184462;23;20441;-82
2022/11/14 10:39:04;;;;;;;86.13;77.43;;;;;;;9.85;100.00;102279.66;6184450;23;20107;-83
2022/11/14 10:41:31;;;;;;;94.43;85.07;;;;;;;9.57;100.00;102281.75;6185554;23;20457;-82
2022/11/14 10:43:58;;;;;;;92.28;83.60;;;;;;;9.90;100.00;102274.72;6185996;23;20091;-84
2022/11/14 10:46:30;;;;;;;95.93;87.18;;;;;;;9.67;100.00;102273.66;6185069;23;20020;-82
2022/11/14 10:48:59;;;;;;;97.88;88.63;;;;;;;9.81;100.00;102270.38;6185657;23;20025;-82
2022/11/14 10:51:33;;;;;;;96.53;87.03;;;;;;;9.63;100.00;102265.19;6185209;23;20029;-82
2022/11/14 10:54:05;;;;;;;93.70;84.45;;;;;;;9.34;100.00;102271.72;6185075;23;20120;-86
2022/11/14 10:56:32;;;;;;;;;;;;;;;9.62;100.00;102264.38;6185789;23;20040;-85
2022/11/14 10:58:59;;;;;;;94.85;85.55;;;;;;;9.59;100.00;102264.69;6185674;23;19916;-86
2022/11/14 11:01:37;;;;;;;102.22;92.00;;;;;;;9.45;100.00;102262.66;6187163;23;20024;-86
2022/11/14 11:04:20;;;;;;;98.18;88.03;;;;;;;9.61;100.00;102264.53;6187642;23;20021;-86
2022/11/14 11:06:47;;;;;;;99.13;89.03;;;;;;;9.47;100.00;102263.34;6187103;23;20513;-85
2022/11/14 11:12:02;;;;;;;101.75;91.00;;;;;;;9.54;100.00;102259.03;6187233;23;20036;-85
2022/11/14 11:14:30;;;;;;;97.32;87.40;;;;;;;9.44;100.00;102258.34;6187691;23;20021;-85
2022/11/14 11:17:19;;;;;;;102.70;91.97;;;;;;;9.24;100.00;102254.31;6187523;23;20020;-85
2022/11/14 11:19:47;;;;;;;98.60;87.38;;;;;;;9.53;100.00;102254.75;6187285;23;20462;-87
2022/11/14 11:22:41;;;;;;;101.13;90.85;;;;;;;9.52;100.00;102245.09;6187460;23;20017;-85
2022/11/14 11:25:25;;;;;;;100.68;90.47;;;;;;;9.64;100.00;102240.31;6183527;23;20032;-85
2022/11/14 11:28:06;;;;;;;104.57;93.05;;;;;;;9.84;100.00;102238.22;6157184;23;20056;-85
2022/11/14 11:30:33;;;;;;;99.65;88.72;;;;;;;9.70;100.00;102237.03;6156668;23;20029;-85
2022/11/14 11:33:17;;;;;;;99.13;88.55;;;;;;;9.55;100.00;102242.13;6157405;23;20431;-85
2022/11/14 11:35:47;;;;;;;105.22;94.30;;;;;;;9.65;100.00;102228.72;6157417;23;20028;-87
2022/11/14 11:38:15;;;;;;;102.28;92.22;;;;;;;9.62;100.00;102242.31;6157766;23;20034;-86
2022/11/14 11:40:44;;;;;;;100.70;91.15;;;;;;;9.52;100.00;102231.84;6157433;23;20477;-86